sensor_id;sensor_type;location;lat;lon;timestamp;P1;durP1;ratioP1;P2;durP2;ratioP2
15261;SDS011;7733;51.554;13.590;2023-08-21T00:01:45;3.20;;;2.90;;
15261;SDS011;7733;51.554;13.590;2023-08-21T00:04:10;3.20;;;3.00;;
15261;SDS011;7733;51.554;13.590;2023-08-21T00:06:36;3.30;;;3.10;;
15261;SDS011;7733;51.554;13.590;2023-08-21T00:09:02;3.23;;;3.03;;
15261;SDS011;7733;51.554;13.590;2023-08-21T00:11:28;2.53;;;2.33;;
15261;SDS011;7733;51.554;13.590;2023-08-21T00:13:54;2.97;;;2.60;;
15261;SDS011;7733;51.554;13.590;2023-08-21T00:16:19;3.07;;;2.77;;
15261;SDS011;7733;51.554;13.590;2023-08-21T00:18:45;3.37;;;3.07;;
15261;SDS011;7733;51.554;13.590;2023-08-21T00:21:11;3.23;;;2.83;;
15261;SDS011;7733;51.554;13.590;2023-08-21T00:23:37;3.20;;;3.00;;
15261;SDS011;7733;51.554;13.590;2023-08-21T00:26:03;3.23;;;3.03;;
15261;SDS011;7733;51.554;13.590;2023-08-21T00:28:29;3.00;;;2.80;;
15261;SDS011;7733;51.554;13.590;2023-08-21T00:31:01;2.93;;;2.73;;
15261;SDS011;7733;51.554;13.590;2023-08-21T00:33:30;2.87;;;2.77;;
15261;SDS011;7733;51.554;13.590;2023-08-21T00:35:57;3.10;;;2.77;;
15261;SDS011;7733;51.554;13.590;2023-08-21T00:38:23;3.30;;;3.10;;
15261;SDS011;7733;51.554;13.590;2023-08-21T00:40:49;3.27;;;2.97;;
15261;SDS011;7733;51.554;13.590;2023-08-21T00:43:16;3.00;;;2.80;;
15261;SDS011;7733;51.554;13.590;2023-08-21T00:45:42;3.30;;;3.03;;
15261;SDS011;7733;51.554;13.590;2023-08-21T00:48:11;3.97;;;3.00;;
15261;SDS011;7733;51.554;13.590;2023-08-21T00:50:38;2.80;;;2.70;;
15261;SDS011;7733;51.554;13.590;2023-08-21T00:53:05;2.93;;;2.83;;
15261;SDS011;7733;51.554;13.590;2023-08-21T00:55:32;2.90;;;2.80;;
15261;SDS011;7733;51.554;13.590;2023-08-21T00:57:58;3.10;;;2.83;;
15261;SDS011;7733;51.554;13.590;2023-08-21T01:00:28;4.63;;;3.00;;
15261;SDS011;7733;51.554;13.590;2023-08-21T01:02:55;2.83;;;2.60;;
15261;SDS011;7733;51.554;13.590;2023-08-21T01:05:22;2.97;;;2.80;;
15261;SDS011;7733;51.554;13.590;2023-08-21T01:08:01;3.20;;;3.00;;
15261;SDS011;7733;51.554;13.590;2023-08-21T01:10:37;3.47;;;3.20;;
15261;SDS011;7733;51.554;13.590;2023-08-21T01:13:22;3.30;;;3.00;;
15261;SDS011;7733;51.554;13.590;2023-08-21T01:16:21;3.00;;;2.80;;
15261;SDS011;7733;51.554;13.590;2023-08-21T01:18:49;2.57;;;2.47;;
15261;SDS011;7733;51.554;13.590;2023-08-21T01:21:18;3.20;;;3.00;;
15261;SDS011;7733;51.554;13.590;2023-08-21T01:23:44;3.10;;;2.90;;
15261;SDS011;7733;51.554;13.590;2023-08-21T01:26:10;2.97;;;2.77;;
15261;SDS011;7733;51.554;13.590;2023-08-21T01:28:36;3.50;;;2.90;;
15261;SDS011;7733;51.554;13.590;2023-08-21T01:33:35;4.37;;;3.37;;
15261;SDS011;7733;51.554;13.590;2023-08-21T01:36:18;3.73;;;3.50;;
15261;SDS011;7733;51.554;13.590;2023-08-21T01:38:45;3.30;;;3.20;;
15261;SDS011;7733;51.554;13.590;2023-08-21T01:41:12;4.10;;;3.70;;
15261;SDS011;7733;51.554;13.590;2023-08-21T01:43:38;3.17;;;3.00;;
15261;SDS011;7733;51.554;13.590;2023-08-21T01:46:04;3.00;;;2.83;;
15261;SDS011;7733;51.554;13.590;2023-08-21T01:48:31;3.13;;;3.03;;
15261;SDS011;7733;51.554;13.590;2023-08-21T01:50:57;3.57;;;3.37;;
15261;SDS011;7733;51.554;13.590;2023-08-21T01:53:25;3.37;;;3.13;;
15261;SDS011;7733;51.554;13.590;2023-08-21T01:55:50;3.37;;;2.90;;
15261;SDS011;7733;51.554;13.590;2023-08-21T01:58:16;3.47;;;3.27;;
15261;SDS011;7733;51.554;13.590;2023-08-21T02:00:45;3.43;;;3.13;;
15261;SDS011;7733;51.554;13.590;2023-08-21T02:03:12;3.87;;;3.67;;
15261;SDS011;7733;51.554;13.590;2023-08-21T02:05:39;4.53;;;3.67;;
15261;SDS011;7733;51.554;13.590;2023-08-21T02:08:06;3.50;;;3.23;;
15261;SDS011;7733;51.554;13.590;2023-08-21T02:10:36;3.20;;;3.00;;
15261;SDS011;7733;51.554;13.590;2023-08-21T02:13:02;3.23;;;3.00;;
15261;SDS011;7733;51.554;13.590;2023-08-21T02:15:28;3.10;;;2.97;;
15261;SDS011;7733;51.554;13.590;2023-08-21T02:17:54;3.40;;;3.20;;
15261;SDS011;7733;51.554;13.590;2023-08-21T02:20:20;4.50;;;3.50;;
15261;SDS011;7733;51.554;13.590;2023-08-21T02:22:45;3.30;;;3.10;;
15261;SDS011;7733;51.554;13.590;2023-08-21T02:25:11;3.30;;;3.20;;
15261;SDS011;7733;51.554;13.590;2023-08-21T02:27:37;3.53;;;3.33;;
15261;SDS011;7733;51.554;13.590;2023-08-21T02:30:03;4.23;;;3.40;;
15261;SDS011;7733;51.554;13.590;2023-08-21T02:32:29;3.23;;;3.13;;
15261;SDS011;7733;51.554;13.590;2023-08-21T02:34:55;3.07;;;2.80;;
15261;SDS011;7733;51.554;13.590;2023-08-21T02:37:20;3.97;;;3.53;;
15261;SDS011;7733;51.554;13.590;2023-08-21T02:39:46;4.17;;;3.77;;
15261;SDS011;7733;51.554;13.590;2023-08-21T02:42:12;3.20;;;3.10;;
15261;SDS011;7733;51.554;13.590;2023-08-21T02:44:38;3.50;;;3.17;;
15261;SDS011;7733;51.554;13.590;2023-08-21T02:47:03;3.47;;;3.27;;
15261;SDS011;7733;51.554;13.590;2023-08-21T02:49:29;3.80;;;3.60;;
15261;SDS011;7733;51.554;13.590;2023-08-21T02:51:55;3.57;;;3.27;;
15261;SDS011;7733;51.554;13.590;2023-08-21T02:54:21;3.20;;;3.10;;
15261;SDS011;7733;51.554;13.590;2023-08-21T02:56:47;3.47;;;3.20;;
15261;SDS011;7733;51.554;13.590;2023-08-21T02:59:13;3.47;;;3.17;;
15261;SDS011;7733;51.554;13.590;2023-08-21T03:01:38;4.90;;;3.43;;
15261;SDS011;7733;51.554;13.590;2023-08-21T03:04:04;3.60;;;3.40;;
15261;SDS011;7733;51.554;13.590;2023-08-21T03:06:30;3.60;;;3.30;;
15261;SDS011;7733;51.554;13.590;2023-08-21T03:08:55;7.90;;;3.47;;
15261;SDS011;7733;51.554;13.590;2023-08-21T03:11:21;3.77;;;3.43;;
15261;SDS011;7733;51.554;13.590;2023-08-21T03:13:47;3.60;;;3.30;;
15261;SDS011;7733;51.554;13.590;2023-08-21T03:16:13;3.73;;;3.53;;
15261;SDS011;7733;51.554;13.590;2023-08-21T03:18:53;3.40;;;3.17;;
15261;SDS011;7733;51.554;13.590;2023-08-21T03:21:24;3.50;;;3.30;;
15261;SDS011;7733;51.554;13.590;2023-08-21T03:23:51;3.63;;;3.43;;
15261;SDS011;7733;51.554;13.590;2023-08-21T03:26:22;3.60;;;3.50;;
15261;SDS011;7733;51.554;13.590;2023-08-21T03:28:49;3.27;;;3.07;;
15261;SDS011;7733;51.554;13.590;2023-08-21T03:31:14;4.10;;;3.70;;
15261;SDS011;7733;51.554;13.590;2023-08-21T03:33:40;3.80;;;3.60;;
15261;SDS011;7733;51.554;13.590;2023-08-21T03:36:06;4.67;;;3.83;;
15261;SDS011;7733;51.554;13.590;2023-08-21T03:38:32;5.23;;;3.63;;
15261;SDS011;7733;51.554;13.590;2023-08-21T03:40:58;3.20;;;3.00;;
15261;SDS011;7733;51.554;13.590;2023-08-21T03:43:25;4.40;;;3.53;;
15261;SDS011;7733;51.554;13.590;2023-08-21T03:45:51;3.77;;;3.57;;
15261;SDS011;7733;51.554;13.590;2023-08-21T03:48:17;3.53;;;3.20;;
15261;SDS011;7733;51.554;13.590;2023-08-21T03:50:42;3.90;;;3.60;;
15261;SDS011;7733;51.554;13.590;2023-08-21T03:53:08;3.80;;;3.50;;
15261;SDS011;7733;51.554;13.590;2023-08-21T03:55:34;4.10;;;3.80;;
15261;SDS011;7733;51.554;13.590;2023-08-21T03:58:00;3.87;;;3.57;;
15261;SDS011;7733;51.554;13.590;2023-08-21T04:00:26;5.40;;;3.80;;
15261;SDS011;7733;51.554;13.590;2023-08-21T04:02:51;4.00;;;3.70;;
15261;SDS011;7733;51.554;13.590;2023-08-21T04:05:17;3.63;;;3.43;;
15261;SDS011;7733;51.554;13.590;2023-08-21T04:07:43;3.73;;;3.53;;
15261;SDS011;7733;51.554;13.590;2023-08-21T04:10:09;3.43;;;3.23;;
15261;SDS011;7733;51.554;13.590;2023-08-21T04:12:34;4.10;;;3.80;;
15261;SDS011;7733;51.554;13.590;2023-08-21T04:15:00;3.90;;;3.53;;
15261;SDS011;7733;51.554;13.590;2023-08-21T04:17:26;4.33;;;4.03;;
15261;SDS011;7733;51.554;13.590;2023-08-21T04:19:52;4.23;;;3.93;;
15261;SDS011;7733;51.554;13.590;2023-08-21T04:22:17;4.17;;;3.87;;
15261;SDS011;7733;51.554;13.590;2023-08-21T04:24:43;4.40;;;4.10;;
15261;SDS011;7733;51.554;13.590;2023-08-21T04:27:09;4.07;;;3.80;;
15261;SDS011;7733;51.554;13.590;2023-08-21T04:29:35;3.90;;;3.60;;
15261;SDS011;7733;51.554;13.590;2023-08-21T04:32:01;3.63;;;3.43;;
15261;SDS011;7733;51.554;13.590;2023-08-21T04:34:27;4.93;;;3.90;;
15261;SDS011;7733;51.554;13.590;2023-08-21T04:36:53;4.17;;;3.97;;
15261;SDS011;7733;51.554;13.590;2023-08-21T04:39:18;4.10;;;3.73;;
15261;SDS011;7733;51.554;13.590;2023-08-21T04:41:44;4.17;;;3.83;;
15261;SDS011;7733;51.554;13.590;2023-08-21T04:44:10;3.90;;;3.67;;
15261;SDS011;7733;51.554;13.590;2023-08-21T04:46:36;4.07;;;3.73;;
15261;SDS011;7733;51.554;13.590;2023-08-21T04:49:01;4.00;;;3.80;;
15261;SDS011;7733;51.554;13.590;2023-08-21T04:51:27;4.70;;;4.20;;
15261;SDS011;7733;51.554;13.590;2023-08-21T04:53:53;4.40;;;4.10;;
15261;SDS011;7733;51.554;13.590;2023-08-21T04:56:19;4.43;;;4.17;;
15261;SDS011;7733;51.554;13.590;2023-08-21T04:58:44;4.40;;;3.90;;
15261;SDS011;7733;51.554;13.590;2023-08-21T05:01:10;4.33;;;3.93;;
15261;SDS011;7733;51.554;13.590;2023-08-21T05:03:37;4.43;;;4.13;;
15261;SDS011;7733;51.554;13.590;2023-08-21T05:06:02;4.63;;;4.23;;
15261;SDS011;7733;51.554;13.590;2023-08-21T05:08:28;4.23;;;3.93;;
15261;SDS011;7733;51.554;13.590;2023-08-21T05:10:57;4.30;;;4.10;;
15261;SDS011;7733;51.554;13.590;2023-08-21T05:13:24;4.33;;;4.10;;
15261;SDS011;7733;51.554;13.590;2023-08-21T05:15:53;4.23;;;3.83;;
15261;SDS011;7733;51.554;13.590;2023-08-21T05:18:24;4.83;;;4.33;;
15261;SDS011;7733;51.554;13.590;2023-08-21T05:20:52;5.27;;;4.67;;
15261;SDS011;7733;51.554;13.590;2023-08-21T05:23:19;5.00;;;4.67;;
15261;SDS011;7733;51.554;13.590;2023-08-21T05:25:46;4.47;;;4.27;;
15261;SDS011;7733;51.554;13.590;2023-08-21T05:28:13;4.90;;;4.43;;
15261;SDS011;7733;51.554;13.590;2023-08-21T05:30:40;4.60;;;4.30;;
15261;SDS011;7733;51.554;13.590;2023-08-21T05:33:05;5.13;;;4.73;;
15261;SDS011;7733;51.554;13.590;2023-08-21T05:35:37;4.93;;;4.53;;
15261;SDS011;7733;51.554;13.590;2023-08-21T05:38:03;4.63;;;4.43;;
15261;SDS011;7733;51.554;13.590;2023-08-21T05:40:29;5.10;;;4.70;;
15261;SDS011;7733;51.554;13.590;2023-08-21T05:42:55;5.67;;;5.17;;
15261;SDS011;7733;51.554;13.590;2023-08-21T05:45:21;5.40;;;5.00;;
15261;SDS011;7733;51.554;13.590;2023-08-21T05:47:46;5.00;;;4.70;;
15261;SDS011;7733;51.554;13.590;2023-08-21T05:50:12;5.13;;;4.83;;
15261;SDS011;7733;51.554;13.590;2023-08-21T05:52:38;4.67;;;4.37;;
15261;SDS011;7733;51.554;13.590;2023-08-21T05:55:04;5.23;;;4.90;;
15261;SDS011;7733;51.554;13.590;2023-08-21T05:57:30;5.33;;;5.00;;
15261;SDS011;7733;51.554;13.590;2023-08-21T05:59:56;6.03;;;5.63;;
15261;SDS011;7733;51.554;13.590;2023-08-21T06:02:22;5.83;;;5.33;;
15261;SDS011;7733;51.554;13.590;2023-08-21T06:04:48;5.93;;;5.53;;
15261;SDS011;7733;51.554;13.590;2023-08-21T06:07:14;6.97;;;6.37;;
15261;SDS011;7733;51.554;13.590;2023-08-21T06:09:40;7.50;;;7.00;;
15261;SDS011;7733;51.554;13.590;2023-08-21T06:12:06;8.20;;;7.43;;
15261;SDS011;7733;51.554;13.590;2023-08-21T06:14:32;7.60;;;7.10;;
15261;SDS011;7733;51.554;13.590;2023-08-21T06:16:59;7.50;;;7.00;;
15261;SDS011;7733;51.554;13.590;2023-08-21T06:19:27;6.93;;;6.53;;
15261;SDS011;7733;51.554;13.590;2023-08-21T06:21:54;7.80;;;7.30;;
15261;SDS011;7733;51.554;13.590;2023-08-21T06:24:20;6.83;;;6.53;;
15261;SDS011;7733;51.554;13.590;2023-08-21T06:26:47;8.00;;;7.50;;
15261;SDS011;7733;51.554;13.590;2023-08-21T06:29:13;7.63;;;7.13;;
15261;SDS011;7733;51.554;13.590;2023-08-21T06:31:38;7.37;;;6.83;;
15261;SDS011;7733;51.554;13.590;2023-08-21T06:34:04;7.67;;;7.17;;
15261;SDS011;7733;51.554;13.590;2023-08-21T06:36:30;8.73;;;7.93;;
15261;SDS011;7733;51.554;13.590;2023-08-21T06:38:56;9.03;;;8.00;;
15261;SDS011;7733;51.554;13.590;2023-08-21T06:41:22;8.57;;;7.90;;
15261;SDS011;7733;51.554;13.590;2023-08-21T06:43:50;8.43;;;7.73;;
15261;SDS011;7733;51.554;13.590;2023-08-21T06:46:16;8.73;;;8.13;;
15261;SDS011;7733;51.554;13.590;2023-08-21T06:48:42;8.13;;;7.70;;
15261;SDS011;7733;51.554;13.590;2023-08-21T06:51:08;9.00;;;8.33;;
15261;SDS011;7733;51.554;13.590;2023-08-21T06:53:35;9.60;;;8.73;;
15261;SDS011;7733;51.554;13.590;2023-08-21T06:56:01;8.83;;;8.13;;
15261;SDS011;7733;51.554;13.590;2023-08-21T06:58:27;8.33;;;7.83;;
15261;SDS011;7733;51.554;13.590;2023-08-21T07:00:54;7.60;;;7.10;;
15261;SDS011;7733;51.554;13.590;2023-08-21T07:03:20;8.30;;;7.77;;
15261;SDS011;7733;51.554;13.590;2023-08-21T07:05:53;8.73;;;8.13;;
15261;SDS011;7733;51.554;13.590;2023-08-21T07:08:21;8.10;;;7.60;;
15261;SDS011;7733;51.554;13.590;2023-08-21T07:10:47;8.20;;;7.57;;
15261;SDS011;7733;51.554;13.590;2023-08-21T07:13:13;8.27;;;7.57;;
15261;SDS011;7733;51.554;13.590;2023-08-21T07:15:39;8.00;;;7.47;;
15261;SDS011;7733;51.554;13.590;2023-08-21T07:18:05;7.73;;;7.23;;
15261;SDS011;7733;51.554;13.590;2023-08-21T07:20:31;7.27;;;6.77;;
15261;SDS011;7733;51.554;13.590;2023-08-21T07:22:57;7.80;;;7.20;;
15261;SDS011;7733;51.554;13.590;2023-08-21T07:25:23;7.40;;;7.00;;
15261;SDS011;7733;51.554;13.590;2023-08-21T07:27:50;8.00;;;7.40;;
15261;SDS011;7733;51.554;13.590;2023-08-21T07:30:18;7.57;;;7.17;;
15261;SDS011;7733;51.554;13.590;2023-08-21T07:32:44;7.20;;;6.80;;
15261;SDS011;7733;51.554;13.590;2023-08-21T07:35:12;7.67;;;7.07;;
15261;SDS011;7733;51.554;13.590;2023-08-21T07:37:38;7.93;;;7.43;;
15261;SDS011;7733;51.554;13.590;2023-08-21T07:40:06;7.90;;;7.50;;
15261;SDS011;7733;51.554;13.590;2023-08-21T07:42:32;7.63;;;7.23;;
15261;SDS011;7733;51.554;13.590;2023-08-21T07:44:58;7.97;;;7.27;;
15261;SDS011;7733;51.554;13.590;2023-08-21T07:47:26;8.17;;;7.67;;
15261;SDS011;7733;51.554;13.590;2023-08-21T07:49:52;7.87;;;7.43;;
15261;SDS011;7733;51.554;13.590;2023-08-21T07:52:18;8.20;;;7.57;;
15261;SDS011;7733;51.554;13.590;2023-08-21T07:54:45;7.60;;;7.17;;
15261;SDS011;7733;51.554;13.590;2023-08-21T07:57:11;8.67;;;8.00;;
15261;SDS011;7733;51.554;13.590;2023-08-21T07:59:38;8.10;;;7.60;;
15261;SDS011;7733;51.554;13.590;2023-08-21T08:02:04;7.70;;;7.20;;
15261;SDS011;7733;51.554;13.590;2023-08-21T08:04:30;8.00;;;7.27;;
15261;SDS011;7733;51.554;13.590;2023-08-21T08:06:56;7.20;;;6.70;;
15261;SDS011;7733;51.554;13.590;2023-08-21T08:09:21;7.30;;;6.90;;
15261;SDS011;7733;51.554;13.590;2023-08-21T08:11:47;7.57;;;7.07;;
15261;SDS011;7733;51.554;13.590;2023-08-21T08:14:13;7.47;;;6.97;;
15261;SDS011;7733;51.554;13.590;2023-08-21T08:16:39;7.50;;;6.80;;
15261;SDS011;7733;51.554;13.590;2023-08-21T08:19:04;7.70;;;7.00;;
15261;SDS011;7733;51.554;13.590;2023-08-21T08:21:30;7.00;;;6.60;;
15261;SDS011;7733;51.554;13.590;2023-08-21T08:23:56;7.30;;;6.80;;
15261;SDS011;7733;51.554;13.590;2023-08-21T08:26:22;6.40;;;5.90;;
15261;SDS011;7733;51.554;13.590;2023-08-21T08:28:48;5.50;;;5.23;;
15261;SDS011;7733;51.554;13.590;2023-08-21T08:31:17;6.57;;;5.57;;
15261;SDS011;7733;51.554;13.590;2023-08-21T08:33:43;6.27;;;5.77;;
15261;SDS011;7733;51.554;13.590;2023-08-21T08:36:10;6.50;;;6.10;;
15261;SDS011;7733;51.554;13.590;2023-08-21T08:38:35;5.97;;;5.67;;
15261;SDS011;7733;51.554;13.590;2023-08-21T08:41:02;6.80;;;6.40;;
15261;SDS011;7733;51.554;13.590;2023-08-21T08:43:56;6.40;;;6.00;;
15261;SDS011;7733;51.554;13.590;2023-08-21T08:46:25;6.83;;;6.30;;
15261;SDS011;7733;51.554;13.590;2023-08-21T08:48:54;6.07;;;5.77;;
15261;SDS011;7733;51.554;13.590;2023-08-21T08:51:21;6.47;;;5.87;;
15261;SDS011;7733;51.554;13.590;2023-08-21T08:53:50;6.50;;;6.00;;
15261;SDS011;7733;51.554;13.590;2023-08-21T08:56:15;8.37;;;5.80;;
15261;SDS011;7733;51.554;13.590;2023-08-21T08:58:41;6.30;;;5.80;;
15261;SDS011;7733;51.554;13.590;2023-08-21T09:01:08;6.57;;;6.00;;
15261;SDS011;7733;51.554;13.590;2023-08-21T09:03:38;6.77;;;6.20;;
15261;SDS011;7733;51.554;13.590;2023-08-21T09:06:03;7.27;;;6.33;;
15261;SDS011;7733;51.554;13.590;2023-08-21T09:08:29;6.40;;;5.87;;
15261;SDS011;7733;51.554;13.590;2023-08-21T09:10:55;6.57;;;6.23;;
15261;SDS011;7733;51.554;13.590;2023-08-21T09:13:27;7.20;;;6.70;;
15261;SDS011;7733;51.554;13.590;2023-08-21T09:15:54;6.60;;;6.20;;
15261;SDS011;7733;51.554;13.590;2023-08-21T09:18:23;7.90;;;7.30;;
15261;SDS011;7733;51.554;13.590;2023-08-21T09:20:49;9.30;;;8.33;;
15261;SDS011;7733;51.554;13.590;2023-08-21T09:23:15;9.37;;;8.47;;
15261;SDS011;7733;51.554;13.590;2023-08-21T09:25:46;9.70;;;8.90;;
15261;SDS011;7733;51.554;13.590;2023-08-21T09:28:14;9.27;;;8.47;;
15261;SDS011;7733;51.554;13.590;2023-08-21T09:30:47;9.43;;;8.63;;
15261;SDS011;7733;51.554;13.590;2023-08-21T09:33:20;9.80;;;8.93;;
15261;SDS011;7733;51.554;13.590;2023-08-21T09:35:48;9.60;;;8.70;;
15261;SDS011;7733;51.554;13.590;2023-08-21T09:38:18;9.10;;;8.50;;
15261;SDS011;7733;51.554;13.590;2023-08-21T09:40:54;9.17;;;8.57;;
15261;SDS011;7733;51.554;13.590;2023-08-21T09:43:23;9.00;;;8.20;;
15261;SDS011;7733;51.554;13.590;2023-08-21T09:45:51;9.00;;;8.23;;
15261;SDS011;7733;51.554;13.590;2023-08-21T09:48:21;8.77;;;8.10;;
15261;SDS011;7733;51.554;13.590;2023-08-21T09:50:54;9.63;;;7.10;;
15261;SDS011;7733;51.554;13.590;2023-08-21T09:53:21;7.53;;;6.80;;
15261;SDS011;7733;51.554;13.590;2023-08-21T09:55:52;6.80;;;6.20;;
15261;SDS011;7733;51.554;13.590;2023-08-21T09:58:20;6.83;;;6.10;;
15261;SDS011;7733;51.554;13.590;2023-08-21T10:00:47;8.67;;;5.37;;
15261;SDS011;7733;51.554;13.590;2023-08-21T10:03:20;5.43;;;5.03;;
15261;SDS011;7733;51.554;13.590;2023-08-21T10:05:48;4.13;;;3.83;;
15261;SDS011;7733;51.554;13.590;2023-08-21T10:08:16;4.20;;;3.90;;
15261;SDS011;7733;51.554;13.590;2023-08-21T10:10:50;4.30;;;4.00;;
15261;SDS011;7733;51.554;13.590;2023-08-21T10:13:17;4.03;;;3.73;;
15261;SDS011;7733;51.554;13.590;2023-08-21T10:15:43;4.87;;;4.60;;
15261;SDS011;7733;51.554;13.590;2023-08-21T10:18:17;4.80;;;4.47;;
15261;SDS011;7733;51.554;13.590;2023-08-21T10:20:44;5.00;;;4.70;;
15261;SDS011;7733;51.554;13.590;2023-08-21T10:23:11;5.67;;;5.17;;
15261;SDS011;7733;51.554;13.590;2023-08-21T10:25:56;6.00;;;5.00;;
15261;SDS011;7733;51.554;13.590;2023-08-21T10:29:03;5.43;;;5.13;;
15261;SDS011;7733;51.554;13.590;2023-08-21T10:31:39;6.00;;;5.70;;
15261;SDS011;7733;51.554;13.590;2023-08-21T10:34:08;6.13;;;5.60;;
15261;SDS011;7733;51.554;13.590;2023-08-21T10:39:53;6.03;;;5.67;;
15261;SDS011;7733;51.554;13.590;2023-08-21T10:42:36;6.43;;;5.77;;
15261;SDS011;7733;51.554;13.590;2023-08-21T10:45:11;6.00;;;5.67;;
15261;SDS011;7733;51.554;13.590;2023-08-21T10:47:38;5.63;;;5.33;;
15261;SDS011;7733;51.554;13.590;2023-08-21T10:50:05;6.30;;;5.80;;
15261;SDS011;7733;51.554;13.590;2023-08-21T10:52:36;6.53;;;6.13;;
15261;SDS011;7733;51.554;13.590;2023-08-21T10:55:08;5.63;;;5.20;;
15261;SDS011;7733;51.554;13.590;2023-08-21T10:57:36;9.80;;;9.10;;
15261;SDS011;7733;51.554;13.590;2023-08-21T11:00:04;5.60;;;5.20;;
15261;SDS011;7733;51.554;13.590;2023-08-21T11:02:35;5.97;;;5.50;;
15261;SDS011;7733;51.554;13.590;2023-08-21T11:05:03;5.60;;;4.50;;
15261;SDS011;7733;51.554;13.590;2023-08-21T11:07:32;4.80;;;4.50;;
15261;SDS011;7733;51.554;13.590;2023-08-21T11:10:10;4.23;;;3.93;;
15261;SDS011;7733;51.554;13.590;2023-08-21T11:12:53;4.57;;;4.37;;
15261;SDS011;7733;51.554;13.590;2023-08-21T11:15:21;4.47;;;4.27;;
15261;SDS011;7733;51.554;13.590;2023-08-21T11:17:58;4.33;;;4.03;;
15261;SDS011;7733;51.554;13.590;2023-08-21T11:20:31;4.50;;;4.20;;
15261;SDS011;7733;51.554;13.590;2023-08-21T11:22:59;4.87;;;4.57;;
15261;SDS011;7733;51.554;13.590;2023-08-21T11:25:30;6.17;;;5.67;;
15261;SDS011;7733;51.554;13.590;2023-08-21T11:27:56;5.40;;;5.10;;
15261;SDS011;7733;51.554;13.590;2023-08-21T11:30:22;5.50;;;5.10;;
15261;SDS011;7733;51.554;13.590;2023-08-21T11:32:48;5.03;;;4.73;;
15261;SDS011;7733;51.554;13.590;2023-08-21T11:35:29;5.17;;;4.90;;
15261;SDS011;7733;51.554;13.590;2023-08-21T11:37:55;4.97;;;4.50;;
15261;SDS011;7733;51.554;13.590;2023-08-21T11:40:21;4.23;;;3.90;;
15261;SDS011;7733;51.554;13.590;2023-08-21T11:42:46;3.60;;;3.40;;
15261;SDS011;7733;51.554;13.590;2023-08-21T11:45:19;3.33;;;3.20;;
15261;SDS011;7733;51.554;13.590;2023-08-21T11:47:46;3.50;;;3.30;;
15261;SDS011;7733;51.554;13.590;2023-08-21T11:50:12;3.90;;;3.70;;
15261;SDS011;7733;51.554;13.590;2023-08-21T11:52:43;4.40;;;4.03;;
15261;SDS011;7733;51.554;13.590;2023-08-21T11:55:09;4.03;;;3.83;;
15261;SDS011;7733;51.554;13.590;2023-08-21T11:57:48;4.27;;;3.97;;
15261;SDS011;7733;51.554;13.590;2023-08-21T12:00:18;3.93;;;3.50;;
15261;SDS011;7733;51.554;13.590;2023-08-21T12:02:55;3.70;;;3.40;;
15261;SDS011;7733;51.554;13.590;2023-08-21T12:05:26;4.50;;;4.27;;
15261;SDS011;7733;51.554;13.590;2023-08-21T12:07:53;5.93;;;3.90;;
15261;SDS011;7733;51.554;13.590;2023-08-21T12:10:26;3.93;;;3.73;;
15261;SDS011;7733;51.554;13.590;2023-08-21T12:12:54;3.73;;;3.53;;
15261;SDS011;7733;51.554;13.590;2023-08-21T12:15:21;3.60;;;3.40;;
15261;SDS011;7733;51.554;13.590;2023-08-21T12:17:48;4.50;;;3.30;;
15261;SDS011;7733;51.554;13.590;2023-08-21T12:20:13;2.97;;;2.87;;
15261;SDS011;7733;51.554;13.590;2023-08-21T12:22:40;3.80;;;3.60;;
15261;SDS011;7733;51.554;13.590;2023-08-21T12:25:09;3.63;;;3.33;;
15261;SDS011;7733;51.554;13.590;2023-08-21T12:27:35;3.83;;;3.53;;
15261;SDS011;7733;51.554;13.590;2023-08-21T12:30:01;3.73;;;3.53;;
15261;SDS011;7733;51.554;13.590;2023-08-21T12:32:28;4.20;;;3.20;;
15261;SDS011;7733;51.554;13.590;2023-08-21T12:34:54;3.40;;;3.20;;
15261;SDS011;7733;51.554;13.590;2023-08-21T12:37:20;2.80;;;2.70;;
15261;SDS011;7733;51.554;13.590;2023-08-21T12:39:45;2.90;;;2.77;;
15261;SDS011;7733;51.554;13.590;2023-08-21T12:42:11;2.50;;;2.40;;
15261;SDS011;7733;51.554;13.590;2023-08-21T12:44:37;2.70;;;2.50;;
15261;SDS011;7733;51.554;13.590;2023-08-21T12:47:03;2.87;;;2.67;;
15261;SDS011;7733;51.554;13.590;2023-08-21T12:49:29;3.03;;;2.83;;
15261;SDS011;7733;51.554;13.590;2023-08-21T12:51:55;2.93;;;2.83;;
15261;SDS011;7733;51.554;13.590;2023-08-21T12:54:20;3.53;;;2.60;;
15261;SDS011;7733;51.554;13.590;2023-08-21T12:56:46;2.63;;;2.37;;
15261;SDS011;7733;51.554;13.590;2023-08-21T12:59:12;2.50;;;2.30;;
15261;SDS011;7733;51.554;13.590;2023-08-21T13:01:41;1.80;;;1.70;;
15261;SDS011;7733;51.554;13.590;2023-08-21T13:04:07;2.00;;;1.90;;
15261;SDS011;7733;51.554;13.590;2023-08-21T13:06:32;2.60;;;2.40;;
15261;SDS011;7733;51.554;13.590;2023-08-21T13:08:58;3.03;;;2.20;;
15261;SDS011;7733;51.554;13.590;2023-08-21T13:11:24;2.67;;;2.40;;
15261;SDS011;7733;51.554;13.590;2023-08-21T13:13:50;2.27;;;2.03;;
15261;SDS011;7733;51.554;13.590;2023-08-21T13:16:15;2.27;;;2.10;;
15261;SDS011;7733;51.554;13.590;2023-08-21T13:18:41;2.60;;;2.20;;
15261;SDS011;7733;51.554;13.590;2023-08-21T13:21:07;2.20;;;2.10;;
15261;SDS011;7733;51.554;13.590;2023-08-21T13:23:33;2.13;;;2.03;;
15261;SDS011;7733;51.554;13.590;2023-08-21T13:25:59;2.10;;;2.00;;
15261;SDS011;7733;51.554;13.590;2023-08-21T13:28:26;2.57;;;1.93;;
15261;SDS011;7733;51.554;13.590;2023-08-21T13:30:53;2.10;;;2.00;;
15261;SDS011;7733;51.554;13.590;2023-08-21T13:33:18;1.90;;;1.80;;
15261;SDS011;7733;51.554;13.590;2023-08-21T13:35:45;2.00;;;1.90;;
15261;SDS011;7733;51.554;13.590;2023-08-21T13:38:12;2.27;;;2.07;;
15261;SDS011;7733;51.554;13.590;2023-08-21T13:40:38;2.47;;;2.30;;
15261;SDS011;7733;51.554;13.590;2023-08-21T13:43:07;2.40;;;2.20;;
15261;SDS011;7733;51.554;13.590;2023-08-21T13:45:35;2.30;;;2.20;;
15261;SDS011;7733;51.554;13.590;2023-08-21T13:48:01;3.30;;;2.07;;
15261;SDS011;7733;51.554;13.590;2023-08-21T13:50:29;2.20;;;2.00;;
15261;SDS011;7733;51.554;13.590;2023-08-21T13:52:55;2.10;;;2.00;;
15261;SDS011;7733;51.554;13.590;2023-08-21T13:55:21;2.00;;;1.90;;
15261;SDS011;7733;51.554;13.590;2023-08-21T13:57:48;2.27;;;2.17;;
15261;SDS011;7733;51.554;13.590;2023-08-21T14:00:14;2.50;;;2.30;;
15261;SDS011;7733;51.554;13.590;2023-08-21T14:02:42;2.13;;;1.87;;
15261;SDS011;7733;51.554;13.590;2023-08-21T14:05:08;2.80;;;2.13;;
15261;SDS011;7733;51.554;13.590;2023-08-21T14:07:36;2.10;;;1.60;;
15261;SDS011;7733;51.554;13.590;2023-08-21T14:10:03;2.03;;;1.80;;
15261;SDS011;7733;51.554;13.590;2023-08-21T14:12:33;2.00;;;1.87;;
15261;SDS011;7733;51.554;13.590;2023-08-21T14:14:59;2.27;;;1.90;;
15261;SDS011;7733;51.554;13.590;2023-08-21T14:17:25;2.17;;;1.87;;
15261;SDS011;7733;51.554;13.590;2023-08-21T14:19:51;1.70;;;1.60;;
15261;SDS011;7733;51.554;13.590;2023-08-21T14:22:17;1.80;;;1.70;;
15261;SDS011;7733;51.554;13.590;2023-08-21T14:24:42;2.00;;;1.80;;
15261;SDS011;7733;51.554;13.590;2023-08-21T14:27:08;1.73;;;1.63;;
15261;SDS011;7733;51.554;13.590;2023-08-21T14:29:34;1.83;;;1.73;;
15261;SDS011;7733;51.554;13.590;2023-08-21T14:32:00;1.80;;;1.70;;
15261;SDS011;7733;51.554;13.590;2023-08-21T14:34:26;2.07;;;1.80;;
15261;SDS011;7733;51.554;13.590;2023-08-21T14:36:55;3.37;;;1.97;;
15261;SDS011;7733;51.554;13.590;2023-08-21T14:39:22;1.60;;;1.50;;
15261;SDS011;7733;51.554;13.590;2023-08-21T14:41:53;1.90;;;1.80;;
15261;SDS011;7733;51.554;13.590;2023-08-21T14:44:23;3.00;;;1.93;;
15261;SDS011;7733;51.554;13.590;2023-08-21T14:46:49;2.07;;;1.87;;
15261;SDS011;7733;51.554;13.590;2023-08-21T14:49:16;2.57;;;1.80;;
15261;SDS011;7733;51.554;13.590;2023-08-21T14:51:42;1.83;;;1.73;;
15261;SDS011;7733;51.554;13.590;2023-08-21T14:54:08;2.00;;;1.80;;
15261;SDS011;7733;51.554;13.590;2023-08-21T14:56:34;2.50;;;1.80;;